sensor_id;sensor_type;location;lat;lon;timestamp;pressure;altitude;pressure_sealevel;temperature;humidity
9189;BME280;34313;50.780;6.084;2023-02-20T00:02:14;100594.91;;;4.67;100.00
9189;BME280;34313;50.780;6.084;2023-02-20T00:04:40;100607.91;;;4.70;100.00
9189;BME280;34313;50.780;6.084;2023-02-20T00:07:06;100621.03;;;4.66;100.00
9189;BME280;34313;50.780;6.084;2023-02-20T00:09:31;100603.72;;;4.60;100.00
9189;BME280;34313;50.780;6.084;2023-02-20T00:11:56;100604.59;;;4.61;100.00
9189;BME280;34313;50.780;6.084;2023-02-20T00:14:22;100598.56;;;4.57;100.00
9189;BME280;34313;50.780;6.084;2023-02-20T00:16:47;100589.88;;;4.57;100.00
9189;BME280;34313;50.780;6.084;2023-02-20T00:19:13;100586.31;;;4.61;100.00
9189;BME280;34313;50.780;6.084;2023-02-20T00:21:47;100571.59;;;4.55;100.00
9189;BME280;34313;50.780;6.084;2023-02-20T00:24:14;100579.38;;;4.60;100.00
9189;BME280;34313;50.780;6.084;2023-02-20T00:26:50;100589.00;;;4.58;100.00
9189;BME280;34313;50.780;6.084;2023-02-20T00:29:17;100583.59;;;4.67;100.00
9189;BME280;34313;50.780;6.084;2023-02-20T00:31:52;100569.66;;;4.68;100.00
9189;BME280;34313;50.780;6.084;2023-02-20T00:34:17;100577.47;;;4.68;100.00
9189;BME280;34313;50.780;6.084;2023-02-20T00:36:43;100564.59;;;4.57;100.00
9189;BME280;34313;50.780;6.084;2023-02-20T00:39:09;100574.06;;;4.64;100.00
9189;BME280;34313;50.780;6.084;2023-02-20T00:41:34;100567.91;;;4.68;100.00
9189;BME280;34313;50.780;6.084;2023-02-20T00:43:59;100556.66;;;4.66;100.00
9189;BME280;34313;50.780;6.084;2023-02-20T00:46:25;100560.16;;;4.64;100.00
9189;BME280;34313;50.780;6.084;2023-02-20T00:48:50;100547.28;;;4.53;100.00
9189;BME280;34313;50.780;6.084;2023-02-20T00:51:16;100566.00;;;4.77;100.00
9189;BME280;34313;50.780;6.084;2023-02-20T00:53:41;100559.84;;;4.82;100.00
9189;BME280;34313;50.780;6.084;2023-02-20T00:56:07;100551.22;;;4.77;100.00
9189;BME280;34313;50.780;6.084;2023-02-20T00:58:32;100563.06;;;4.97;100.00
9189;BME280;34313;50.780;6.084;2023-02-20T01:00:58;100542.25;;;4.90;100.00
9189;BME280;34313;50.780;6.084;2023-02-20T01:03:23;100543.78;;;5.04;100.00
9189;BME280;34313;50.780;6.084;2023-02-20T01:05:48;100533.41;;;4.99;100.00
9189;BME280;34313;50.780;6.084;2023-02-20T01:08:14;100533.25;;;5.08;100.00
9189;BME280;34313;50.780;6.084;2023-02-20T01:10:39;100529.78;;;5.05;100.00
9189;BME280;34313;50.780;6.084;2023-02-20T01:13:04;100527.13;;;5.08;100.00
9189;BME280;34313;50.780;6.084;2023-02-20T01:15:30;100530.56;;;5.10;100.00
9189;BME280;34313;50.780;6.084;2023-02-20T01:17:55;100534.09;;;5.09;100.00
9189;BME280;34313;50.780;6.084;2023-02-20T01:20:21;100544.53;;;5.10;100.00
9189;BME280;34313;50.780;6.084;2023-02-20T01:22:46;100541.09;;;5.08;100.00
9189;BME280;34313;50.780;6.084;2023-02-20T01:25:11;100531.75;;;4.95;100.00
9189;BME280;34313;50.780;6.084;2023-02-20T01:27:37;100525.63;;;4.96;100.00
9189;BME280;34313;50.780;6.084;2023-02-20T01:30:02;100531.47;;;5.09;100.00
9189;BME280;34313;50.780;6.084;2023-02-20T01:32:28;100537.72;;;5.02;100.00
9189;BME280;34313;50.780;6.084;2023-02-20T01:34:53;100537.72;;;5.02;100.00
9189;BME280;34313;50.780;6.084;2023-02-20T01:37:18;100523.78;;;5.01;100.00
9189;BME280;34313;50.780;6.084;2023-02-20T01:39:46;100522.09;;;4.99;100.00
9189;BME280;34313;50.780;6.084;2023-02-20T01:42:17;100519.47;;;5.00;100.00
9189;BME280;34313;50.780;6.084;2023-02-20T01:44:43;100522.97;;;4.98;100.00
9189;BME280;34313;50.780;6.084;2023-02-20T01:47:12;100530.78;;;4.99;100.00
9189;BME280;34313;50.780;6.084;2023-02-20T01:50:00;100527.28;;;5.00;100.00
9189;BME280;34313;50.780;6.084;2023-02-20T01:52:28;100519.56;;;4.94;100.00
9189;BME280;34313;50.780;6.084;2023-02-20T01:55:15;100518.69;;;4.93;100.00
9189;BME280;34313;50.780;6.084;2023-02-20T01:57:50;100513.53;;;4.90;100.00
9189;BME280;34313;50.780;6.084;2023-02-20T02:00:19;100514.47;;;4.88;100.00
9189;BME280;34313;50.780;6.084;2023-02-20T02:02:50;100510.13;;;4.85;100.00
9189;BME280;34313;50.780;6.084;2023-02-20T02:05:17;100502.53;;;4.73;100.00
9189;BME280;34313;50.780;6.084;2023-02-20T02:07:43;100504.13;;;4.80;100.00
9189;BME280;34313;50.780;6.084;2023-02-20T02:10:13;100506.66;;;4.86;100.00
9189;BME280;34313;50.780;6.084;2023-02-20T02:12:39;100513.47;;;4.93;100.00
9189;BME280;34313;50.780;6.084;2023-02-20T02:15:13;100511.06;;;4.83;100.00
9189;BME280;34313;50.780;6.084;2023-02-20T02:20:50;100510.28;;;4.79;100.00
9189;BME280;34313;50.780;6.084;2023-02-20T02:26:16;100501.91;;;4.59;100.00
9189;BME280;34313;50.780;6.084;2023-02-20T02:40:01;100487.78;;;4.70;100.00
9189;BME280;34313;50.780;6.084;2023-02-20T02:42:33;100478.25;;;4.68;100.00
9189;BME280;34313;50.780;6.084;2023-02-20T02:45:10;100479.97;;;4.69;100.00
9189;BME280;34313;50.780;6.084;2023-02-20T02:47:52;100480.94;;;4.65;100.00
9189;BME280;34313;50.780;6.084;2023-02-20T02:50:37;100485.84;;;4.80;100.00
9189;BME280;34313;50.780;6.084;2023-02-20T02:53:06;100472.00;;;4.75;100.00
9189;BME280;34313;50.780;6.084;2023-02-20T02:55:32;100468.56;;;4.74;100.00
9189;BME280;34313;50.780;6.084;2023-02-20T02:58:04;100465.97;;;4.73;100.00
9189;BME280;34313;50.780;6.084;2023-02-20T03:03:24;100465.06;;;4.76;100.00
9189;BME280;34313;50.780;6.084;2023-02-20T03:05:54;100452.13;;;4.68;100.00
9189;BME280;34313;50.780;6.084;2023-02-20T03:08:51;100445.97;;;4.72;100.00
9189;BME280;34313;50.780;6.084;2023-02-20T03:11:23;100432.94;;;4.70;100.00
9189;BME280;34313;50.780;6.084;2023-02-20T03:13:49;100419.91;;;4.69;100.00
9189;BME280;34313;50.780;6.084;2023-02-20T03:19:40;100400.72;;;4.71;100.00
9189;BME280;34313;50.780;6.084;2023-02-20T03:22:33;100390.44;;;4.64;100.00
9189;BME280;34313;50.780;6.084;2023-02-20T03:25:12;100383.38;;;4.67;100.00
9189;BME280;34313;50.780;6.084;2023-02-20T03:33:03;100325.91;;;4.25;100.00
9189;BME280;34313;50.780;6.084;2023-02-20T03:35:48;100373.09;;;4.60;100.00
9189;BME280;34313;50.780;6.084;2023-02-20T03:38:36;100385.22;;;4.62;100.00
9189;BME280;34313;50.780;6.084;2023-02-20T03:41:22;100381.81;;;4.59;100.00
9189;BME280;34313;50.780;6.084;2023-02-20T03:44:09;100377.44;;;4.59;100.00
9189;BME280;34313;50.780;6.084;2023-02-20T03:46:37;100368.91;;;4.52;100.00
9189;BME280;34313;50.780;6.084;2023-02-20T03:49:11;100372.31;;;4.56;100.00
9189;BME280;34313;50.780;6.084;2023-02-20T03:51:38;100376.50;;;4.65;100.00
9189;BME280;34313;50.780;6.084;2023-02-20T03:54:10;100377.41;;;4.61;100.00
9189;BME280;34313;50.780;6.084;2023-02-20T03:56:40;100371.13;;;4.71;100.00
9189;BME280;34313;50.780;6.084;2023-02-20T03:59:12;100362.34;;;4.75;100.00
9189;BME280;34313;50.780;6.084;2023-02-20T04:01:41;100356.22;;;4.76;100.00
9189;BME280;34313;50.780;6.084;2023-02-20T04:04:11;100352.75;;;4.77;100.00
9189;BME280;34313;50.780;6.084;2023-02-20T04:06:39;100359.66;;;4.78;100.00
9189;BME280;34313;50.780;6.084;2023-02-20T04:09:09;100358.75;;;4.81;100.00
9189;BME280;34313;50.780;6.084;2023-02-20T04:11:40;100357.75;;;4.86;100.00
9189;BME280;34313;50.780;6.084;2023-02-20T04:14:07;100353.34;;;4.90;100.00
9189;BME280;34313;50.780;6.084;2023-02-20T04:16:38;100340.56;;;4.76;100.00
9189;BME280;34313;50.780;6.084;2023-02-20T04:19:05;100359.63;;;4.80;100.00
9189;BME280;34313;50.780;6.084;2023-02-20T04:24:11;100358.66;;;4.84;100.00
9189;BME280;34313;50.780;6.084;2023-02-20T04:26:37;100360.34;;;4.88;100.00
9189;BME280;34313;50.780;6.084;2023-02-20T04:29:04;100350.00;;;4.82;100.00
9189;BME280;34313;50.780;6.084;2023-02-20T04:31:29;100358.59;;;4.88;100.00
9189;BME280;34313;50.780;6.084;2023-02-20T04:33:55;100359.59;;;4.81;100.00
9189;BME280;34313;50.780;6.084;2023-02-20T04:36:20;100363.94;;;4.82;100.00
9189;BME280;34313;50.780;6.084;2023-02-20T04:38:46;100358.91;;;4.73;100.00
9189;BME280;34313;50.780;6.084;2023-02-20T04:41:11;100363.03;;;4.83;100.00
9189;BME280;34313;50.780;6.084;2023-02-20T04:43:37;100363.00;;;4.85;100.00
9189;BME280;34313;50.780;6.084;2023-02-20T04:46:02;100367.34;;;4.86;100.00
9189;BME280;34313;50.780;6.084;2023-02-20T04:48:28;100372.59;;;4.86;100.00
9189;BME280;34313;50.780;6.084;2023-02-20T04:50:53;100373.63;;;4.77;100.00
9189;BME280;34313;50.780;6.084;2023-02-20T04:53:19;100360.53;;;4.79;100.00
9189;BME280;34313;50.780;6.084;2023-02-20T04:55:44;100359.59;;;4.81;100.00
9189;BME280;34313;50.780;6.084;2023-02-20T04:58:10;100361.25;;;4.85;100.00
9189;BME280;34313;50.780;6.084;2023-02-20T05:00:35;100355.13;;;4.88;100.00
9189;BME280;34313;50.780;6.084;2023-02-20T05:03:00;100350.78;;;4.87;100.00
9189;BME280;34313;50.780;6.084;2023-02-20T05:05:28;100361.22;;;4.87;100.00
9189;BME280;34313;50.780;6.084;2023-02-20T05:07:59;100326.63;;;4.77;100.00
9189;BME280;34313;50.780;6.084;2023-02-20T05:10:26;100357.75;;;4.86;100.00
9189;BME280;34313;50.780;6.084;2023-02-20T05:12:52;100363.84;;;4.87;100.00
9189;BME280;34313;50.780;6.084;2023-02-20T05:15:18;100360.38;;;4.86;100.00
9189;BME280;34313;50.780;6.084;2023-02-20T05:17:44;100360.34;;;4.88;100.00
9189;BME280;34313;50.780;6.084;2023-02-20T05:20:11;100355.13;;;4.88;100.00
9189;BME280;34313;50.780;6.084;2023-02-20T05:22:37;100357.69;;;4.91;100.00
9189;BME280;34313;50.780;6.084;2023-02-20T05:25:02;100361.06;;;4.96;100.00
9189;BME280;34313;50.780;6.084;2023-02-20T05:27:28;100353.13;;;4.99;100.00
9189;BME280;34313;50.780;6.084;2023-02-20T05:29:55;100347.88;;;5.01;100.00
9189;BME280;34313;50.780;6.084;2023-02-20T05:32:22;100353.91;;;5.03;100.00
9189;BME280;34313;50.780;6.084;2023-02-20T05:34:48;100347.78;;;5.05;100.00
9189;BME280;34313;50.780;6.084;2023-02-20T05:37:16;100336.53;;;5.02;100.00
9189;BME280;34313;50.780;6.084;2023-02-20T05:39:42;100342.53;;;5.07;100.00
9189;BME280;34313;50.780;6.084;2023-02-20T05:42:07;100341.63;;;5.08;100.00
9189;BME280;34313;50.780;6.084;2023-02-20T05:44:34;100338.13;;;5.09;100.00
9189;BME280;34313;50.780;6.084;2023-02-20T05:47:00;100337.22;;;5.10;100.00
9189;BME280;34313;50.780;6.084;2023-02-20T05:49:25;100331.94;;;5.11;100.00
9189;BME280;34313;50.780;6.084;2023-02-20T05:51:52;100318.25;;;5.02;100.00
9189;BME280;34313;50.780;6.084;2023-02-20T05:54:19;100326.69;;;5.13;100.00
9189;BME280;34313;50.780;6.084;2023-02-20T05:56:46;100336.31;;;5.11;100.00
9189;BME280;34313;50.780;6.084;2023-02-20T05:59:12;100326.72;;;5.11;100.00
9189;BME280;34313;50.780;6.084;2023-02-20T06:01:38;100322.44;;;5.09;100.00
9189;BME280;34313;50.780;6.084;2023-02-20T06:04:04;100325.91;;;5.09;100.00
9189;BME280;34313;50.780;6.084;2023-02-20T06:06:38;100326.88;;;5.05;100.00
9189;BME280;34313;50.780;6.084;2023-02-20T06:09:06;100333.81;;;5.06;100.00
9189;BME280;34313;50.780;6.084;2023-02-20T06:11:33;100338.19;;;5.06;100.00
9189;BME280;34313;50.780;6.084;2023-02-20T06:13:59;100342.66;;;4.99;100.00
9189;BME280;34313;50.780;6.084;2023-02-20T06:16:27;100331.31;;;5.02;100.00
9189;BME280;34313;50.780;6.084;2023-02-20T06:18:54;100329.72;;;4.95;100.00
9189;BME280;34313;50.780;6.084;2023-02-20T06:21:19;100319.38;;;4.90;100.00
9189;BME280;34313;50.780;6.084;2023-02-20T06:23:48;100330.69;;;4.89;100.00
9189;BME280;34313;50.780;6.084;2023-02-20T06:26:14;100321.94;;;4.93;100.00
9189;BME280;34313;50.780;6.084;2023-02-20T06:28:40;100315.22;;;4.80;100.00
9189;BME280;34313;50.780;6.084;2023-02-20T06:31:06;100312.81;;;4.70;100.00
9189;BME280;34313;50.780;6.084;2023-02-20T06:33:32;100332.66;;;4.79;100.00
9189;BME280;34313;50.780;6.084;2023-02-20T06:35:58;100326.59;;;4.79;100.00
9189;BME280;34313;50.780;6.084;2023-02-20T06:38:24;100330.91;;;4.80;100.00
9189;BME280;34313;50.780;6.084;2023-02-20T06:40:50;100331.75;;;4.80;100.00
9189;BME280;34313;50.780;6.084;2023-02-20T06:43:15;100340.50;;;4.79;100.00
9189;BME280;34313;50.780;6.084;2023-02-20T06:45:41;100328.56;;;4.67;100.00
9189;BME280;34313;50.780;6.084;2023-02-20T06:48:06;100344.13;;;4.72;100.00
9189;BME280;34313;50.780;6.084;2023-02-20T06:50:32;100335.41;;;4.71;100.00
9189;BME280;34313;50.780;6.084;2023-02-20T06:52:57;100344.03;;;4.77;100.00
9189;BME280;34313;50.780;6.084;2023-02-20T06:55:23;100328.53;;;4.69;100.00
9189;BME280;34313;50.780;6.084;2023-02-20T06:57:48;100331.91;;;4.74;100.00
9189;BME280;34313;50.780;6.084;2023-02-20T07:00:14;100353.09;;;5.01;100.00
9189;BME280;34313;50.780;6.084;2023-02-20T07:02:40;100358.09;;;5.10;100.00
9189;BME280;34313;50.780;6.084;2023-02-20T07:05:06;100346.84;;;5.08;100.00
9189;BME280;34313;50.780;6.084;2023-02-20T07:07:33;100365.78;;;5.19;100.00
9189;BME280;34313;50.780;6.084;2023-02-20T07:09:58;100351.03;;;5.15;100.00
9189;BME280;34313;50.780;6.084;2023-02-20T07:12:29;100346.81;;;5.09;100.00
9189;BME280;34313;50.780;6.084;2023-02-20T07:14:55;100370.63;;;5.35;100.00
9189;BME280;34313;50.780;6.084;2023-02-20T07:17:20;100365.16;;;5.47;100.00
9189;BME280;34313;50.780;6.084;2023-02-20T07:19:46;100379.94;;;5.84;100.00
9189;BME280;34313;50.780;6.084;2023-02-20T07:22:11;100386.16;;;6.16;100.00
9189;BME280;34313;50.780;6.084;2023-02-20T07:24:36;100389.69;;;6.13;100.00
9189;BME280;34313;50.780;6.084;2023-02-20T07:27:02;100385.13;;;6.21;100.00
9189;BME280;34313;50.780;6.084;2023-02-20T07:29:27;100386.19;;;6.14;100.00
9189;BME280;34313;50.780;6.084;2023-02-20T07:31:52;100379.44;;;6.05;100.00
9189;BME280;34313;50.780;6.084;2023-02-20T07:34:18;100381.88;;;6.12;100.00
9189;BME280;34313;50.780;6.084;2023-02-20T07:36:43;100386.78;;;6.24;100.00
9189;BME280;34313;50.780;6.084;2023-02-20T07:39:09;100395.34;;;6.31;100.00
9189;BME280;34313;50.780;6.084;2023-02-20T07:41:35;100395.25;;;6.35;100.00
9189;BME280;34313;50.780;6.084;2023-02-20T07:44:01;100390.94;;;6.33;100.00
9189;BME280;34313;50.780;6.084;2023-02-20T07:46:26;100408.25;;;6.38;100.00
9189;BME280;34313;50.780;6.084;2023-02-20T07:48:51;100403.97;;;6.34;100.00
9189;BME280;34313;50.780;6.084;2023-02-20T07:51:17;100410.03;;;6.36;100.00
9189;BME280;34313;50.780;6.084;2023-02-20T07:53:50;100399.47;;;6.39;100.00
9189;BME280;34313;50.780;6.084;2023-02-20T07:56:18;100408.06;;;6.44;100.00
9189;BME280;34313;50.780;6.084;2023-02-20T07:58:44;100391.03;;;6.30;100.00
9189;BME280;34313;50.780;6.084;2023-02-20T08:01:09;100411.50;;;6.47;100.00
9189;BME280;34313;50.780;6.084;2023-02-20T08:03:35;100408.66;;;6.56;100.00
9189;BME280;34313;50.780;6.084;2023-02-20T08:06:00;100404.06;;;6.64;100.00
9189;BME280;34313;50.780;6.084;2023-02-20T08:08:25;100399.00;;;6.58;100.00
9189;BME280;34313;50.780;6.084;2023-02-20T08:10:51;100396.94;;;6.69;100.00
9189;BME280;34313;50.780;6.084;2023-02-20T08:13:17;100402.63;;;6.84;100.00
9189;BME280;34313;50.780;6.084;2023-02-20T08:15:43;100390.44;;;6.82;100.00
9189;BME280;34313;50.780;6.084;2023-02-20T08:18:13;100398.81;;;6.95;100.00
9189;BME280;34313;50.780;6.084;2023-02-20T08:20:38;100400.47;;;6.99;100.00
9189;BME280;34313;50.780;6.084;2023-02-20T08:23:03;100392.69;;;6.96;100.00
9189;BME280;34313;50.780;6.084;2023-02-20T08:25:30;100408.63;;;7.18;100.00
9189;BME280;34313;50.780;6.084;2023-02-20T08:27:57;100392.00;;;7.19;100.00
9189;BME280;34313;50.780;6.084;2023-02-20T08:30:25;100399.44;;;7.33;100.00
9189;BME280;34313;50.780;6.084;2023-02-20T08:32:52;100397.97;;;7.53;100.00
9189;BME280;34313;50.780;6.084;2023-02-20T08:35:21;100398.34;;;7.69;98.24
9189;BME280;34313;50.780;6.084;2023-02-20T08:37:49;100399.00;;;7.75;97.21
9189;BME280;34313;50.780;6.084;2023-02-20T08:40:14;100407.91;;;7.98;96.32
9189;BME280;34313;50.780;6.084;2023-02-20T08:42:39;100407.59;;;8.07;95.05
9189;BME280;34313;50.780;6.084;2023-02-20T08:45:06;100412.47;;;8.18;94.17
9189;BME280;34313;50.780;6.084;2023-02-20T08:47:32;100414.00;;;7.99;94.69
9189;BME280;34313;50.780;6.084;2023-02-20T08:49:58;100423.34;;;8.07;94.42
9189;BME280;34313;50.780;6.084;2023-02-20T08:52:24;100419.28;;;7.70;95.26
9189;BME280;34313;50.780;6.084;2023-02-20T08:54:50;100413.69;;;7.81;94.97
9189;BME280;34313;50.780;6.084;2023-02-20T08:57:16;100422.66;;;8.01;94.50
9189;BME280;34313;50.780;6.084;2023-02-20T08:59:42;100420.84;;;8.03;93.73
9189;BME280;34313;50.780;6.084;2023-02-20T09:02:15;100434.88;;;8.28;93.06
9189;BME280;34313;50.780;6.084;2023-02-20T09:04:42;100419.75;;;8.10;92.93
9189;BME280;34313;50.780;6.084;2023-02-20T09:07:09;100433.56;;;8.15;93.10
9189;BME280;34313;50.780;6.084;2023-02-20T09:09:34;100430.09;;;8.14;93.06
9189;BME280;34313;50.780;6.084;2023-02-20T09:11:59;100427.81;;;8.04;93.49
9189;BME280;34313;50.780;6.084;2023-02-20T09:14:25;100443.66;;;8.27;93.36
9189;BME280;34313;50.780;6.084;2023-02-20T09:16:51;100436.63;;;8.29;92.50
9189;BME280;34313;50.780;6.084;2023-02-20T09:19:20;100430.94;;;8.15;93.37
9189;BME280;34313;50.780;6.084;2023-02-20T09:21:50;100428.59;;;8.07;93.63
9189;BME280;34313;50.780;6.084;2023-02-20T09:24:16;100436.84;;;8.22;92.63
9189;BME280;34313;50.780;6.084;2023-02-20T09:26:42;100440.25;;;8.52;91.77
9189;BME280;34313;50.780;6.084;2023-02-20T09:29:07;100437.19;;;8.64;91.20
9189;BME280;34313;50.780;6.084;2023-02-20T09:31:32;100436.38;;;8.87;89.71
9189;BME280;34313;50.780;6.084;2023-02-20T09:33:58;100426.84;;;9.08;87.51
9189;BME280;34313;50.780;6.084;2023-02-20T09:36:25;100425.66;;;9.39;86.36
9189;BME280;34313;50.780;6.084;2023-02-20T09:38:50;100425.53;;;9.42;85.50
9189;BME280;34313;50.780;6.084;2023-02-20T09:41:39;100412.19;;;9.69;83.53
9189;BME280;34313;50.780;6.084;2023-02-20T09:46:39;100413.13;;;9.90;82.18
9189;BME280;34313;50.780;6.084;2023-02-20T09:49:16;100416.63;;;10.33;80.00
9189;BME280;34313;50.780;6.084;2023-02-20T09:51:55;100407.47;;;10.42;78.99
9189;BME280;34313;50.780;6.084;2023-02-20T09:54:33;100406.72;;;10.79;76.79
9189;BME280;34313;50.780;6.084;2023-02-20T09:57:09;100396.97;;;11.20;75.12
9189;BME280;34313;50.780;6.084;2023-02-20T09:59:41;100399.69;;;11.18;74.27
9189;BME280;34313;50.780;6.084;2023-02-20T10:04:39;100397.41;;;11.48;72.54
9189;BME280;34313;50.780;6.084;2023-02-20T10:07:30;100406.09;;;11.69;72.37
9189;BME280;34313;50.780;6.084;2023-02-20T10:09:56;100387.81;;;11.65;72.08
9189;BME280;34313;50.780;6.084;2023-02-20T10:12:40;100387.34;;;11.93;70.94
9189;BME280;34313;50.780;6.084;2023-02-20T10:18:29;100388.97;;;12.13;69.06
9189;BME280;34313;50.780;6.084;2023-02-20T10:21:06;100367.75;;;11.97;68.87
9189;BME280;34313;50.780;6.084;2023-02-20T10:23:49;100385.72;;;12.08;69.37
9189;BME280;34313;50.780;6.084;2023-02-20T10:26:25;100382.84;;;12.30;68.90
9189;BME280;34313;50.780;6.084;2023-02-20T10:29:00;100363.56;;;12.28;67.35
9189;BME280;34313;50.780;6.084;2023-02-20T10:31:34;100374.06;;;12.29;67.67
9189;BME280;34313;50.780;6.084;2023-02-20T10:34:17;100386.78;;;12.56;67.31
9189;BME280;34313;50.780;6.084;2023-02-20T10:36:53;100395.50;;;12.41;67.70
9189;BME280;34313;50.780;6.084;2023-02-20T10:39:20;100394.03;;;12.35;68.02
9189;BME280;34313;50.780;6.084;2023-02-20T10:41:51;100395.97;;;12.14;68.93
9189;BME280;34313;50.780;6.084;2023-02-20T10:44:28;100403.66;;;12.01;72.55
9189;BME280;34313;50.780;6.084;2023-02-20T10:52:51;100390.41;;;12.20;69.21
9189;BME280;34313;50.780;6.084;2023-02-20T10:55:34;100388.97;;;12.13;68.98
9189;BME280;34313;50.780;6.084;2023-02-20T10:58:15;100391.94;;;11.70;70.13
9189;BME280;34313;50.780;6.084;2023-02-20T11:00:50;100394.13;;;11.80;70.33
9189;BME280;34313;50.780;6.084;2023-02-20T11:03:24;100384.97;;;11.69;70.67
9189;BME280;34313;50.780;6.084;2023-02-20T11:05:54;100385.81;;;11.87;70.74
9189;BME280;34313;50.780;6.084;2023-02-20T11:08:21;100378.91;;;11.85;70.42
9189;BME280;34313;50.780;6.084;2023-02-20T11:10:47;100361.22;;;11.87;70.63
9189;BME280;34313;50.780;6.084;2023-02-20T11:13:17;100372.81;;;12.37;69.50
9189;BME280;34313;50.780;6.084;2023-02-20T11:15:45;100367.72;;;12.49;68.22
9189;BME280;34313;50.780;6.084;2023-02-20T11:18:37;100377.69;;;12.44;68.22
9189;BME280;34313;50.780;6.084;2023-02-20T11:21:04;100351.50;;;11.87;69.50
9189;BME280;34313;50.780;6.084;2023-02-20T11:23:43;100355.94;;;11.87;70.26
9189;BME280;34313;50.780;6.084;2023-02-20T11:29:15;100350.16;;;11.79;71.15
9189;BME280;34313;50.780;6.084;2023-02-20T11:31:42;100340.91;;;11.87;70.86
9189;BME280;34313;50.780;6.084;2023-02-20T11:34:21;100320.59;;;12.07;69.73
9189;BME280;34313;50.780;6.084;2023-02-20T11:36:51;100350.97;;;12.33;69.43
9189;BME280;34313;50.780;6.084;2023-02-20T11:41:47;100321.50;;;12.23;69.93
9189;BME280;34313;50.780;6.084;2023-02-20T11:44:21;100322.06;;;12.13;70.51
9189;BME280;34313;50.780;6.084;2023-02-20T11:47:08;100320.31;;;11.96;71.44
9189;BME280;34313;50.780;6.084;2023-02-20T11:49:34;100318.53;;;11.77;72.29
9189;BME280;34313;50.780;6.084;2023-02-20T11:52:16;100317.69;;;11.77;72.07
9189;BME280;34313;50.780;6.084;2023-02-20T11:54:41;100306.22;;;11.41;73.01
9189;BME280;34313;50.780;6.084;2023-02-20T11:59:39;100318.84;;;11.71;73.85
9189;BME280;34313;50.780;6.084;2023-02-20T12:02:26;100320.50;;;12.08;72.06
9189;BME280;34313;50.780;6.084;2023-02-20T12:07:40;100321.19;;;12.63;70.05
9189;BME280;34313;50.780;6.084;2023-02-20T12:10:19;100319.00;;;12.71;69.55
9189;BME280;34313;50.780;6.084;2023-02-20T12:12:46;100320.19;;;12.81;68.68
9189;BME280;34313;50.780;6.084;2023-02-20T12:15:17;100308.84;;;12.79;68.88
9189;BME280;34313;50.780;6.084;2023-02-20T12:17:46;100311.41;;;12.97;68.54
9189;BME280;34313;50.780;6.084;2023-02-20T12:20:20;100311.00;;;13.04;67.99
9189;BME280;34313;50.780;6.084;2023-02-20T12:23:32;100310.22;;;13.18;68.01
9189;BME280;34313;50.780;6.084;2023-02-20T12:26:24;100295.38;;;13.32;67.82
9189;BME280;34313;50.780;6.084;2023-02-20T12:37:02;100281.69;;;12.92;68.89
9189;BME280;34313;50.780;6.084;2023-02-20T12:42:08;100264.97;;;12.59;70.94
9189;BME280;34313;50.780;6.084;2023-02-20T12:47:37;100254.25;;;12.78;70.50
9189;BME280;34313;50.780;6.084;2023-02-20T13:00:53;100237.84;;;12.88;70.77
9189;BME280;34313;50.780;6.084;2023-02-20T13:03:40;100243.56;;;12.96;70.93
9189;BME280;34313;50.780;6.084;2023-02-20T13:06:10;100235.97;;;12.90;71.26
9189;BME280;34313;50.780;6.084;2023-02-20T13:11:29;100243.88;;;13.05;70.77
9189;BME280;34313;50.780;6.084;2023-02-20T13:14:15;100240.72;;;12.99;72.23
9189;BME280;34313;50.780;6.084;2023-02-20T13:16:47;100237.22;;;12.98;71.85
9189;BME280;34313;50.780;6.084;2023-02-20T13:19:42;100228.09;;;13.04;71.62
9189;BME280;34313;50.780;6.084;2023-02-20T13:22:10;100221.19;;;13.01;71.98
9189;BME280;34313;50.780;6.084;2023-02-20T13:24:39;100217.19;;;12.94;71.91
9189;BME280;34313;50.780;6.084;2023-02-20T13:27:09;100221.69;;;13.08;71.59
9189;BME280;34313;50.780;6.084;2023-02-20T13:30:08;100210.19;;;12.77;72.85
9189;BME280;34313;50.780;6.084;2023-02-20T13:32:35;100203.00;;;12.95;72.41
9189;BME280;34313;50.780;6.084;2023-02-20T13:38:10;100187.16;;;12.47;74.13
9189;BME280;34313;50.780;6.084;2023-02-20T13:41:25;100166.53;;;12.54;74.14
9189;BME280;34313;50.780;6.084;2023-02-20T13:43:26;100173.31;;;12.74;73.97
9189;BME280;34313;50.780;6.084;2023-02-20T13:48:45;100164.72;;;12.39;75.60
9189;BME280;34313;50.780;6.084;2023-02-20T13:53:53;100154.88;;;11.93;77.90
9189;BME280;34313;50.780;6.084;2023-02-20T13:56:57;100148.84;;;11.73;79.47
9189;BME280;34313;50.780;6.084;2023-02-20T13:59:19;100153.28;;;11.73;79.92
9189;BME280;34313;50.780;6.084;2023-02-20T14:02:03;100156.03;;;11.37;81.64
9189;BME280;34313;50.780;6.084;2023-02-20T14:05:04;100138.63;;;11.32;82.89
9189;BME280;34313;50.780;6.084;2023-02-20T14:07:42;100139.09;;;11.23;83.32
9189;BME280;34313;50.780;6.084;2023-02-20T14:12:44;100144.41;;;10.87;85.96
9189;BME280;34313;50.780;6.084;2023-02-20T14:15:10;100148.81;;;10.69;87.80
9189;BME280;34313;50.780;6.084;2023-02-20T14:17:37;100144.75;;;10.81;87.24
9189;BME280;34313;50.780;6.084;2023-02-20T14:20:17;100139.41;;;11.00;87.04
9189;BME280;34313;50.780;6.084;2023-02-20T14:22:43;100140.34;;;11.16;86.66
9189;BME280;34313;50.780;6.084;2023-02-20T14:27:37;100133.03;;;11.21;86.52
9189;BME280;34313;50.780;6.084;2023-02-20T14:30:05;100133.13;;;11.20;86.54
9189;BME280;34313;50.780;6.084;2023-02-20T14:32:31;100122.97;;;11.12;86.94
9189;BME280;34313;50.780;6.084;2023-02-20T14:37:52;100136.91;;;10.96;87.31
9189;BME280;34313;50.780;6.084;2023-02-20T14:40:38;100125.28;;;11.01;87.44
9189;BME280;34313;50.780;6.084;2023-02-20T14:43:19;100115.28;;;10.90;88.09
9189;BME280;34313;50.780;6.084;2023-02-20T14:45:57;100115.09;;;10.75;88.67
9189;BME280;34313;50.780;6.084;2023-02-20T14:48:28;100117.88;;;10.72;88.71
9189;BME280;34313;50.780;6.084;2023-02-20T14:53:35;100125.78;;;10.36;91.51
9189;BME280;34313;50.780;6.084;2023-02-20T14:56:15;100139.72;;;10.19;92.83
9189;BME280;34313;50.780;6.084;2023-02-20T14:58:42;100138.44;;;10.28;92.91